createdAt,value
2022-08-02T00:06:27.721Z,100473.71
2022-08-02T00:16:37.494Z,100474.45
2022-08-02T00:26:40.452Z,100477.83
2022-08-02T00:36:42.402Z,100485.98
2022-08-02T00:46:44.848Z,100485.54
2022-08-02T00:56:50.061Z,100485.61
2022-08-02T01:06:53.245Z,100481.13
2022-08-02T01:17:04.180Z,100472.02
2022-08-02T01:27:41.882Z,100484.33
2022-08-02T01:37:49.162Z,100490.21
2022-08-02T01:47:54.100Z,100493.20
2022-08-02T01:58:05.320Z,100492.80
2022-08-02T02:08:09.921Z,100496.78
2022-08-02T02:18:18.544Z,100496.27
2022-08-02T02:28:24.566Z,100501.39
2022-08-02T02:38:31.082Z,100505.06
2022-08-02T02:48:35.601Z,100509.52
2022-08-02T02:58:38.645Z,100509.66
2022-08-02T03:08:40.678Z,100510.48
2022-08-02T03:18:44.396Z,100511.19
2022-08-02T03:28:46.323Z,100508.84
2022-08-02T03:38:50.272Z,100514.04
2022-08-02T03:48:53.332Z,100519.20
2022-08-02T03:59:13.666Z,100527.90
2022-08-02T04:09:15.556Z,100535.20
2022-08-02T04:19:26.675Z,100544.49
2022-08-02T04:29:30.548Z,100563.70
2022-08-02T04:39:32.529Z,100570.67
2022-08-02T04:49:34.729Z,100583.91
2022-08-02T04:59:36.585Z,100586.42
2022-08-02T05:09:38.521Z,100590.48
2022-08-02T05:19:41.460Z,100596.54
2022-08-02T05:29:51.174Z,100609.21
2022-08-02T05:39:56.497Z,100611.48
2022-08-02T05:49:58.961Z,100624.48
2022-08-02T06:00:11.355Z,100635.73
2022-08-02T06:10:20.734Z,100635.23
2022-08-02T06:20:24.287Z,100636.04
2022-08-02T06:30:26.886Z,100640.79
2022-08-02T06:40:48.426Z,100642.42
2022-08-02T06:50:50.591Z,100651.19
2022-08-02T07:00:53.874Z,100658.69
2022-08-02T07:10:58.428Z,100663.52
2022-08-02T07:21:00.408Z,100656.76
2022-08-02T07:31:02.493Z,100658.45
2022-08-02T07:41:04.791Z,100656.06
2022-08-02T07:51:06.986Z,100652.09
2022-08-02T08:01:10.264Z,100655.95
2022-08-02T08:11:12.332Z,100656.54
2022-08-02T08:21:14.459Z,100658.49
2022-08-02T08:31:16.435Z,100663.38
2022-08-02T08:41:19.522Z,100662.59
2022-08-02T08:51:24.770Z,100658.96
2022-08-02T09:01:27.325Z,100667.64
2022-08-02T09:11:49.690Z,100668.73
2022-08-02T09:22:00.957Z,100672.52
2022-08-02T09:44:12.831Z,100667.90
2022-08-02T09:54:24.606Z,100666.92
2022-08-02T10:16:18.961Z,100650.80
2022-08-02T10:37:21.661Z,100639.19
2022-08-02T10:47:54.583Z,100641.00
2022-08-02T10:59:06.168Z,100640.43
2022-08-02T11:09:32.781Z,100648.39
2022-08-02T11:19:55.842Z,100655.36
2022-08-02T11:30:39.145Z,100659.42
2022-08-02T11:41:17.248Z,100652.48
2022-08-02T11:51:54.248Z,100652.30
2022-08-02T12:13:21.225Z,100659.95
2022-08-02T12:24:01.792Z,100662.02
2022-08-02T12:34:15.334Z,100655.09
2022-08-02T12:44:19.766Z,100657.35
2022-08-02T12:54:31.002Z,100658.80
2022-08-02T13:04:34.836Z,100670.69
2022-08-02T13:14:41.707Z,100671.45
2022-08-02T13:25:07.632Z,100667.80
2022-08-02T13:35:34.898Z,100675.89
2022-08-02T13:45:37.069Z,100679.02
2022-08-02T13:55:43.388Z,100681.05
2022-08-02T14:05:49.042Z,100678.26
2022-08-02T14:15:51.430Z,100682.11
2022-08-02T14:25:53.430Z,100683.13
2022-08-02T14:35:57.039Z,100679.02
2022-08-02T14:45:59.329Z,100671.08
2022-08-02T14:56:01.355Z,100667.33
2022-08-02T15:06:03.337Z,100670.08
2022-08-02T15:16:05.757Z,100666.30
2022-08-02T15:26:07.705Z,100671.13
2022-08-02T15:36:10.178Z,100676.86
2022-08-02T15:46:12.399Z,100683.44
2022-08-02T15:56:14.495Z,100685.83
2022-08-02T16:06:18.418Z,100687.88
2022-08-02T16:16:22.530Z,100688.92
2022-08-02T16:26:26.557Z,100690.70
2022-08-02T16:36:28.835Z,100702.98
2022-08-02T16:46:31.196Z,100712.79
2022-08-02T16:56:34.055Z,100715.81
2022-08-02T17:06:47.591Z,100720.44
2022-08-02T17:16:54.197Z,100721.89
2022-08-02T17:26:56.099Z,100729.33
2022-08-02T17:36:58.026Z,100721.64
2022-08-02T17:47:00.012Z,100725.13
2022-08-02T17:57:04.432Z,100726.72
2022-08-02T18:07:09.910Z,100729.88
2022-08-02T18:17:14.428Z,100739.64
2022-08-02T18:27:16.492Z,100749.87
2022-08-02T18:37:18.614Z,100758.75
2022-08-02T18:47:20.750Z,100757.66
2022-08-02T18:58:02.487Z,100767.48
2022-08-02T19:07:50.802Z,100778.71
2022-08-02T19:17:57.318Z,100779.09
2022-08-02T19:27:59.385Z,100787.96
2022-08-02T19:38:09.783Z,100792.30
2022-08-02T19:48:15.841Z,100791.41
2022-08-02T19:58:17.798Z,100789.16
2022-08-02T20:08:31.773Z,100784.35
2022-08-02T20:18:38.003Z,100789.77
2022-08-02T20:28:41.571Z,100792.67
2022-08-02T20:38:43.749Z,100796.13
2022-08-02T20:48:45.824Z,100790.60
2022-08-02T20:58:47.869Z,100788.06
2022-08-02T21:08:54.688Z,100790.38
2022-08-02T21:19:00.018Z,100798.22
2022-08-02T21:29:03.664Z,100802.54
2022-08-02T21:39:08.863Z,100805.58
2022-08-02T21:49:11.491Z,100808.33
2022-08-02T21:59:16.123Z,100810.34
2022-08-02T22:09:44.521Z,100819.03
2022-08-02T22:19:53.804Z,100822.64
2022-08-02T22:29:56.592Z,100822.37
2022-08-02T22:40:08.348Z,100821.02
2022-08-02T22:50:12.179Z,100819.11
2022-08-02T23:00:14.846Z,100822.88
2022-08-02T23:10:16.778Z,100831.62
2022-08-02T23:20:18.752Z,100838.22
2022-08-02T23:30:21.043Z,100839.90
2022-08-02T23:40:38.818Z,100837.46
2022-08-02T23:50:42.031Z,100833.39
